Share

Saint Johns, AZ

Saint Johns Industrial (KSJN) Elev 5725 ft | 34.52 °N, 109.38 °W | Change Station

Current weather conditions updated 21 minutes ago

Overcast
Overcast
50 °F
Feels Like 50 °F
N
0
Wind Variable Wind from North
Sunrise 5:42 AM
Sunset 6:51 PM
Moon Waning Gibbous

Tomorrow is forecast to be Much Cooler than today.

Pressure 29.92 in
Visibility 10.0 miles
Clouds Overcast 9500 ft
Dew Point 45 °F
Humidity 83%
Rainfall 0.02 in
Snow Depth Not available.
UV 0 out of 16
Pollen 8.50 out of 12
Air Quality Not available.
Flu Activity Local Activity
METAR KSJN 190454Z AUTO 00000KT 10SM OVC095 10/07 A3012 RMK AO2 SLP130 T01000072 TSNO

More Conditions Fewer Conditions

Pressure 29.92 in
Visibility 10.0 miles
Clouds Overcast 9500 ft
Dew Point 45 °F
Humidity 83%
Rainfall 0.02 in
Snow Depth Not available.
UV 0 out of 16
Pollen 8.50 out of 12
Air Quality Not available.
Flu Activity Local Activity
METAR KSJN 190454Z AUTO 00000KT 10SM OVC095 10/07 A3012 RMK AO2 SLP130 T01000072 TSNO

More Conditions Fewer Conditions

10-Day Weather Forecast

Almanac

Astronomy

Apr. 18, 2014 Rise Set
Actual Time 5:42 AM MST 6:51 PM MST
Civil Twilight 5:16 AM MST 7:18 PM MST
Nautical Twilight 4:45 AM MST 7:49 PM MST
Astronomical Twilight 4:13 AM MST 8:21 PM MST
Moon 10:34 PM MST (4/18) 8:12 AM MST (4/18)
Length of Visible Light 14h 01m
Length of Day
13h 09m
Tomorrow will be 2m 1s longer.
Waning Gibbous, 83% of the Moon is Illuminated
Apr 19
Waning Gibbous
Apr 22
Last Quarter
Apr 29
New
May 6
First Quarter
May 14
Full

Yesterday's Extremes

State Highs State Lows

Community

  • Sunset Silhouettes
    Sunset Silhouettes
  • FL sunset Perico Isle
    FL sunset Perico Isle
  • Cloudy spring view
    Cloudy spring view
  • Old barn
    Old barn
  • What's for Lunch?
    What's for Lunch?

WunderPhotos

Upload Photos

1,702,645 photos uploaded!

WunderBlogs® & News

Nearby

Snow Depth

Station Depth Elevation
Maverick Fork 1 in 9200 ft
Wildcat 0 in 7850 ft
Beaver Head 0 in 7990 ft
Hannagan Meadows 0 in 9020 ft
Heber 1 in 7640 ft

Coastal Water Temperatures

Place Temperature
No Stations Reporting

Earthquake Activity

City Distance Mag. Time & Date
No recent earthquake activity has been reported nearby.
Minimum magnitude displayed is 2.5.

Nearby Weather Stations

Station Location Temp. Windchill Dew Point Humidity Wind Precip. Elev Updated Type
Galaxy Ranch, Concho, AZ 51.0 °F - 35 °F 55% SSE  at  12.0 mph 0.00 in / hr 6345 ft 6:48 PM MST Normal
5 miles west of Concho Valley, Concho Valley, AZ 49.1 °F 45 °F 40 °F 71% ENE  at  9.0 mph 0.00 in / hr 6394 ft 10:12 PM MST Normal
STEVE'S OBSERVATORY, Concho, AZ 47.5 °F 48 °F 7 °F 19% ENE  at  0.0 mph 0.00 in / hr 6453 ft 10:15 PM MST Rapid Fire

Show More Stations Show Fewer Stations

What do you think?

We're not finished. Please let us know what you like, what you don't like, and what you are still missing.